Time;durP1;ratioP1;P1;durP2;ratioP2;P2;SDS_P1;SDS_P2;PMS_P1;PMS_P2;Temp;Humidity;BMP_temperature;BMP_pressure;BME280_temperature;BME280_humidity;BME280_pressure;Samples;Min_cycle;Max_cycle;Signal;HPM_P1;HPM_P2
2023/05/30 00:01:54;;;;;;;;;;;;;;;7.86;75.18;102456.34;5048989;28;20021;-82
2023/05/30 00:04:21;;;;;;;15.57;3.10;;;;;;;7.80;75.10;102451.53;5047187;28;19924;-80
2023/05/30 00:06:47;;;;;;;16.85;3.70;;;;;;;7.76;75.26;102442.09;5045743;28;20934;-80
2023/05/30 00:09:12;;;;;;;;;;;;;;;7.70;76.14;102430.94;5039206;28;20058;-80
2023/05/30 00:11:39;;;;;;;12.90;3.10;;;;;;;7.65;75.62;102438.53;5048758;28;19940;-80
2023/05/30 00:14:04;;;;;;;10.93;3.22;;;;;;;7.59;76.35;102441.75;5048089;28;20033;-81
2023/05/30 00:16:31;;;;;;;;;;;;;;;7.55;76.83;102443.06;5057358;28;20054;-80
2023/05/30 00:18:57;;;;;;;11.77;3.20;;;;;;;7.57;76.81;102446.44;5076344;28;20365;-80
2023/05/30 00:21:23;;;;;;;9.10;3.22;;;;;;;7.56;76.83;102444.75;5055690;28;20028;-80
2023/05/30 00:23:49;;;;;;;;;;;;;;;7.48;76.66;102449.94;5052489;28;20029;-81
2023/05/30 00:26:14;;;;;;;14.43;3.75;;;;;;;7.44;77.13;102447.53;5055151;28;19921;-80
2023/05/30 00:28:39;;;;;;;;;;;;;;;7.36;77.59;102460.75;5053043;28;20029;-79
2023/05/30 00:31:05;;;;;;;16.95;3.53;;;;;;;7.34;77.76;102457.38;5057017;28;19923;-81
2023/05/30 00:33:31;;;;;;;;;;;;;;;7.26;77.65;102449.16;5055082;28;20099;-79
2023/05/30 00:35:56;;;;;;;12.02;2.88;;;;;;;7.21;78.28;102456.75;5052415;28;19917;-80
2023/05/30 00:38:21;;;;;;;;;;;;;;;7.21;78.15;102448.72;5055595;28;20098;-80
2023/05/30 00:40:46;;;;;;;13.67;3.57;;;;;;;7.21;78.69;102456.75;5053681;28;20351;-80
2023/05/30 00:43:12;;;;;;;;;;;;;;;7.17;78.43;102461.53;5056052;28;20431;-80
2023/05/30 00:45:37;;;;;;;11.95;2.90;;;;;;;7.15;78.19;102462.66;5050424;28;19923;-80
2023/05/30 00:48:02;;;;;;;;;;;;;;;7.11;78.88;102457.56;5056504;28;20025;-81
2023/05/30 00:50:30;;;;;;;9.45;3.47;;;;;;;7.10;78.57;102461.22;5038311;28;20430;-80
2023/05/30 00:52:56;;;;;;;13.50;3.53;;;;;;;7.06;79.08;102459.78;5054863;28;20021;-81
2023/05/30 00:55:21;;;;;;;17.83;3.70;;;;;;;7.08;78.67;102456.97;5019404;28;20033;-81
2023/05/30 00:57:47;;;;;;;;;;;;;;;7.08;79.45;102465.03;5022078;28;20036;-80
2023/05/30 01:00:13;;;;;;;8.70;3.27;;;;;;;7.05;78.98;102450.06;5062561;28;19917;-80
2023/05/30 01:02:39;;;;;;;10.93;3.78;;;;;;;7.05;78.90;102451.91;5033581;28;20283;-81
2023/05/30 01:05:04;;;;;;;;;;;;;;;6.96;79.19;102451.72;5069132;28;20511;-81
2023/05/30 01:07:31;;;;;;;13.00;3.80;;;;;;;6.93;79.37;102453.81;5053131;28;19971;-81
2023/05/30 01:09:57;;;;;;;10.27;3.55;;;;;;;6.88;79.42;102456.88;5053582;28;20544;-80
2023/05/30 01:12:28;;;;;;;;;;;;;;;6.83;79.72;102454.63;5057568;28;20111;-80
2023/05/30 01:14:56;;;;;;;13.48;3.45;;;;;;;6.82;79.33;102462.75;5059806;28;20639;-80
2023/05/30 01:17:36;;;;;;;8.25;3.22;;;;;;;6.77;79.54;102462.31;5064900;28;20037;-80
2023/05/30 01:20:11;;;;;;;12.95;3.65;;;;;;;6.75;80.22;102465.13;5045302;28;20460;-81
2023/05/30 01:23:14;;;;;;;13.45;3.83;;;;;;;6.70;80.49;102458.47;5056530;28;20044;-81
2023/05/30 01:26:05;;;;;;;16.98;4.10;;;;;;;6.66;80.49;102457.88;5057914;28;20029;-82
2023/05/30 01:28:33;;;;;;;15.32;3.97;;;;;;;6.71;80.66;102460.16;5041820;28;20033;-80
2023/05/30 01:30:58;;;;;;;17.15;4.35;;;;;;;6.72;80.63;102457.34;5054281;28;20025;-81
2023/05/30 01:33:23;;;;;;;;;;;;;;;6.74;80.70;102467.94;5021418;28;20480;-80
2023/05/30 01:35:49;;;;;;;14.00;3.95;;;;;;;6.79;80.99;102458.53;5054749;28;19963;-81
2023/05/30 01:38:14;;;;;;;;;;;;;;;6.82;80.84;102455.59;5054213;28;20047;-80
2023/05/30 01:40:41;;;;;;;14.68;4.47;;;;;;;6.81;80.22;102467.28;5048316;28;19924;-81
2023/05/30 01:43:29;;;;;;;16.27;3.92;;;;;;;6.83;80.43;102470.69;5015781;28;20036;-81
2023/05/30 01:45:58;;;;;;;14.85;4.05;;;;;;;6.86;80.55;102468.72;5052183;28;20033;-81
2023/05/30 01:48:26;;;;;;;12.48;4.00;;;;;;;6.89;80.68;102469.28;5030700;28;20025;-81
2023/05/30 01:50:52;;;;;;;10.35;3.85;;;;;;;6.86;80.74;102468.72;5050123;28;20091;-82
2023/05/30 01:53:20;;;;;;;;;;;;;;;6.84;80.40;102474.19;5032614;28;20029;-81
2023/05/30 01:55:45;;;;;;;;;;;;;;;6.83;80.92;102476.03;5034089;28;19920;-81
2023/05/30 01:58:11;;;;;;;16.00;4.27;;;;;;;6.82;80.68;102477.00;5051156;28;19990;-81
2023/05/30 02:00:37;;;;;;;12.63;4.30;;;;;;;6.82;80.91;102485.03;5033170;28;20029;-81
2023/05/30 02:03:02;;;;;;;;;;;;;;;6.79;81.24;102492.50;5035176;28;20032;-80
2023/05/30 02:05:27;;;;;;;15.90;4.10;;;;;;;6.79;80.93;102484.47;5050017;28;19917;-80
2023/05/30 02:07:53;;;;;;;;;;;;;;;6.75;81.50;102483.84;5050615;28;20288;-81
2023/05/30 02:10:18;;;;;;;11.30;4.13;;;;;;;6.78;81.14;102488.94;5055663;28;19923;-81
2023/05/30 02:12:43;;;;;;;16.67;4.05;;;;;;;6.75;81.02;102486.53;5048803;28;20302;-81
2023/05/30 02:15:09;;;;;;;;;;;;;;;6.71;81.41;102487.75;5053335;28;20384;-82
2023/05/30 02:17:35;;;;;;;11.52;3.97;;;;;;;6.71;81.56;102493.13;5052701;28;19917;-91
2023/05/30 02:20:01;;;;;;;14.50;4.35;;;;;;;6.69;81.18;102497.78;5052543;28;20033;-82
2023/05/30 02:22:26;;;;;;;;;;;;;;;6.74;81.68;102503.56;5053147;28;20480;-82
2023/05/30 02:24:52;;;;;;;15.93;4.60;;;;;;;6.75;81.88;102494.56;5053438;28;19912;-81
2023/05/30 02:27:17;;;;;;;;;;;;;;;6.77;82.08;102500.63;5051674;28;20314;-84
2023/05/30 02:29:42;;;;;;;15.57;4.72;;;;;;;6.81;81.96;102498.53;5056456;28;20567;-83
2023/05/30 02:32:08;;;;;;;;;;;;;;;6.85;82.00;102497.31;5052903;28;20040;-83
2023/05/30 02:34:33;;;;;;;12.70;4.43;;;;;;;6.89;81.80;102489.84;5050704;28;20318;-83
2023/05/30 02:36:59;;;;;;;;;;;;;;;6.94;81.98;102498.34;5051812;28;20380;-82
2023/05/30 02:39:24;;;;;;;10.35;4.03;;;;;;;7.01;81.49;102496.84;5050344;28;19923;-82
2023/05/30 02:41:50;;;;;;;;;;;;;;;7.04;81.14;102501.94;5051462;28;20045;-85
2023/05/30 02:44:15;;;;;;;12.55;4.20;;;;;;;7.09;80.66;102506.88;5057548;28;20283;-88
2023/05/30 02:46:40;;;;;;;;;;;;;;;7.15;81.05;102505.50;5070634;28;20481;-88
2023/05/30 02:49:06;;;;;;;13.20;3.87;;;;;;;7.17;80.54;102509.72;5057876;28;19940;-87
2023/05/30 02:51:31;;;;;;;;;;;;;;;7.22;81.47;102512.88;5055815;28;20091;-86
2023/05/30 02:53:57;;;;;;;10.03;4.03;;;;;;;7.25;80.71;102511.75;5046363;28;19928;-87
2023/05/30 02:56:23;;;;;;;;;;;;;;;7.31;81.09;102508.53;5057952;28;20116;-86
2023/05/30 02:58:49;;;;;;;10.10;3.97;;;;;;;7.40;80.92;102504.19;5059964;28;19940;-86
2023/05/30 03:01:15;;;;;;;14.82;4.15;;;;;;;7.45;80.19;102510.00;5063296;28;20068;-86
2023/05/30 03:03:41;;;;;;;;;;;;;;;7.53;80.60;102510.16;5075694;28;20060;-87
2023/05/30 03:06:07;;;;;;;11.88;4.30;;;;;;;7.63;79.77;102514.72;5062621;28;19913;-87
2023/05/30 03:08:32;;;;;;;;;;;;;;;7.68;79.93;102515.16;5058742;28;20033;-88
2023/05/30 03:10:58;;;;;;;12.23;4.28;;;;;;;7.74;80.00;102515.47;5058010;28;19999;-87
2023/05/30 03:13:23;;;;;;;;;;;;;;;7.77;79.18;102517.03;5063935;28;20107;-88
2023/05/30 03:15:48;;;;;;;9.70;4.07;;;;;;;7.82;78.88;102530.00;5071387;28;19947;-86
2023/05/30 03:18:14;;;;;;;;;;;;;;;7.83;79.72;102534.38;5059195;28;20032;-87
2023/05/30 03:20:40;;;;;;;16.83;4.65;;;;;;;7.88;79.06;102529.47;5059868;28;19913;-86
2023/05/30 03:23:05;;;;;;;;;;;;;;;7.99;78.87;102520.47;5060757;28;20044;-86
2023/05/30 03:25:32;;;;;;;8.27;4.13;;;;;;;8.04;78.08;102520.88;5048747;28;19944;-87
2023/05/30 03:27:57;;;;;;;14.27;4.88;;;;;;;8.11;78.25;102519.34;5042277;28;20090;-87
2023/05/30 03:30:26;;;;;;;;;;;;;;;8.14;78.11;102519.06;5062379;28;20116;-87
2023/05/30 03:32:52;;;;;;;15.38;4.65;;;;;;;8.17;77.65;102523.28;5059799;28;19972;-86
2023/05/30 03:35:17;;;;;;;;;;;;;;;8.23;77.33;102520.06;5059663;28;20105;-86
2023/05/30 03:37:42;;;;;;;12.37;4.57;;;;;;;8.30;77.32;102518.50;5058908;28;19913;-88
2023/05/30 03:40:08;;;;;;;;;;;;;;;8.32;77.19;102524.56;5058536;28;20035;-89
2023/05/30 03:42:34;;;;;;;15.13;4.40;;;;;;;8.37;76.14;102524.19;5055848;28;19944;-88
2023/05/30 03:44:59;;;;;;;;;;;;;;;8.42;75.29;102526.44;5057078;28;20026;-88
2023/05/30 03:47:25;;;;;;;12.93;4.17;;;;;;;8.50;75.04;102521.22;5049684;28;19924;-88
2023/05/30 03:49:50;;;;;;;;;;;;;;;8.54;73.99;102530.69;5052936;28;20108;-86
2023/05/30 03:52:16;;;;;;;14.37;4.40;;;;;;;8.57;74.29;102534.91;5059926;28;19967;-87
2023/05/30 03:54:41;;;;;;;;;;;;;;;8.61;74.00;102523.78;5046346;28;20033;-87
2023/05/30 03:57:06;;;;;;;10.90;4.47;;;;;;;8.62;73.85;102516.56;5060526;28;19917;-87
2023/05/30 03:59:32;;;;;;;;;;;;;;;8.67;73.42;102529.53;5056280;28;20033;-88
2023/05/30 04:01:57;;;;;;;10.83;4.10;;;;;;;8.72;73.37;102533.50;5057057;28;20371;-87
2023/05/30 04:04:22;;;;;;;13.60;4.47;;;;;;;8.74;72.85;102530.66;5055953;28;20039;-88
2023/05/30 04:06:48;;;;;;;;;;;;;;;8.77;73.48;102525.03;5053999;28;20025;-79
2023/05/30 04:09:13;;;;;;;10.57;3.90;;;;;;;8.85;72.98;102533.19;5051198;28;20323;-81
2023/05/30 04:11:38;;;;;;;;;;;;;;;8.87;73.28;102536.59;5049471;28;20037;-83
2023/05/30 04:14:04;;;;;;;11.87;3.90;;;;;;;8.90;72.94;102530.09;5053511;28;19917;-79
2023/05/30 04:16:29;;;;;;;;;;;;;;;8.95;72.38;102536.72;5048652;28;20295;-82
2023/05/30 04:18:54;;;;;;;11.65;4.05;;;;;;;8.97;73.10;102539.25;5038442;28;19917;-85
2023/05/30 04:21:22;;;;;;;10.65;4.40;;;;;;;9.01;72.51;102540.66;5048905;28;20025;-84
2023/05/30 04:23:48;;;;;;;10.68;4.40;;;;;;;9.02;72.76;102533.44;5050999;28;20043;-88
2023/05/30 04:26:13;;;;;;;;;;;;;;;9.03;72.89;102535.13;5054445;28;20095;-85
2023/05/30 04:28:39;;;;;;;13.73;4.33;;;;;;;9.09;72.92;102531.88;5052019;28;20351;-83
2023/05/30 04:31:07;;;;;;;14.35;5.05;;;;;;;9.12;72.70;102536.97;5048878;28;20441;-85
2023/05/30 04:33:35;;;;;;;11.75;4.80;;;;;;;9.17;73.34;102532.00;5051051;28;20396;-83
2023/05/30 04:36:09;;;;;;;13.38;4.70;;;;;;;9.13;73.42;102541.34;5052632;28;20028;-83
2023/05/30 04:38:34;;;;;;;12.02;4.50;;;;;;;9.17;73.84;102534.69;5035652;28;20035;-83
2023/05/30 04:41:01;;;;;;;;;;;;;;;9.19;73.21;102539.91;5059380;28;20028;-83
2023/05/30 04:43:27;;;;;;;12.02;5.32;;;;;;;9.23;73.83;102542.16;5072276;28;19916;-83
2023/05/30 04:45:52;;;;;;;;;;;;;;;9.27;73.93;102534.63;5072877;28;20728;-84
2023/05/30 04:48:18;;;;;;;9.60;4.73;;;;;;;9.34;73.55;102541.13;5064121;28;19973;-83
2023/05/30 04:50:46;;;;;;;;;;;;;;;9.39;72.92;102527.25;5058723;28;20290;-83
2023/05/30 04:53:19;;;;;;;14.98;4.90;;;;;;;9.41;72.41;102527.94;5072437;28;20275;-86
2023/05/30 04:55:44;;;;;;;13.55;4.85;;;;;;;9.45;72.85;102532.03;5065467;28;20029;-86
2023/05/30 04:58:11;;;;;;;10.75;5.10;;;;;;;9.44;72.74;102524.13;5051959;28;20396;-87
2023/05/30 05:00:36;;;;;;;9.68;5.15;;;;;;;9.47;72.44;102524.69;5051288;28;20039;-86
2023/05/30 05:03:02;;;;;;;14.07;4.93;;;;;;;9.49;71.67;102529.88;5051735;28;20025;-86
2023/05/30 05:05:27;;;;;;;11.25;4.90;;;;;;;9.52;71.80;102529.59;5054957;28;20095;-87
2023/05/30 05:07:53;;;;;;;;;;;;;;;9.59;72.29;102532.53;5057728;28;20066;-87
2023/05/30 05:10:18;;;;;;;13.00;4.77;;;;;;;9.66;71.98;102537.16;5056116;28;19958;-87
2023/05/30 05:12:44;;;;;;;;;;;;;;;9.75;71.35;102535.44;5074422;28;20785;-86
2023/05/30 05:15:10;;;;;;;11.43;5.00;;;;;;;9.82;71.10;102539.22;5070673;28;20330;-87
2023/05/30 05:17:36;;;;;;;12.38;5.00;;;;;;;9.88;71.03;102540.47;5060719;28;20029;-85
2023/05/30 05:20:05;;;;;;;14.80;5.18;;;;;;;9.89;70.54;102538.59;5070308;28;20021;-86
2023/05/30 05:22:34;;;;;;;14.80;5.20;;;;;;;9.96;70.71;102542.38;5059073;28;20069;-85
2023/05/30 05:24:59;;;;;;;11.43;4.22;;;;;;;10.05;70.29;102541.50;5069035;28;20033;-85
2023/05/30 05:27:27;;;;;;;11.57;4.75;;;;;;;10.04;69.09;102541.63;5066665;28;20483;-86
2023/05/30 05:29:52;;;;;;;14.23;5.13;;;;;;;10.13;69.02;102549.66;5060769;28;20029;-86
2023/05/30 05:32:18;;;;;;;14.07;4.93;;;;;;;10.10;68.25;102549.94;5066155;28;20146;-86
2023/05/30 05:34:44;;;;;;;8.75;4.60;;;;;;;10.10;68.59;102549.94;5081019;28;20046;-84
2023/05/30 05:37:10;;;;;;;14.48;5.40;;;;;;;10.19;68.61;102537.41;5079972;28;20024;-86
2023/05/30 05:39:35;;;;;;;13.80;5.28;;;;;;;10.24;67.68;102534.25;5078973;28;20035;-86
2023/05/30 05:42:04;;;;;;;10.80;4.80;;;;;;;10.22;67.71;102536.28;5077008;28;20032;-86
2023/05/30 05:44:30;;;;;;;10.32;5.53;;;;;;;10.22;67.06;102542.50;5052726;28;20029;-85
2023/05/30 05:46:56;;;;;;;11.43;4.63;;;;;;;10.31;66.79;102549.66;5060503;28;20032;-86
2023/05/30 05:49:22;;;;;;;9.18;4.78;;;;;;;10.30;67.29;102547.13;5061012;28;20033;-86
2023/05/30 05:51:49;;;;;;;11.52;4.85;;;;;;;10.37;65.86;102550.03;5059254;28;20049;-86
2023/05/30 05:54:16;;;;;;;8.88;4.80;;;;;;;10.42;65.56;102548.59;5058134;28;20569;-86
2023/05/30 05:56:44;;;;;;;11.05;5.55;;;;;;;10.40;65.41;102549.75;5059476;28;20082;-86
2023/05/30 05:59:09;;;;;;;12.30;5.32;;;;;;;10.39;65.80;102559.69;5059500;28;20040;-86
2023/05/30 06:01:34;;;;;;;10.85;5.30;;;;;;;10.50;64.99;102565.84;5059531;28;20396;-87
2023/05/30 06:04:01;;;;;;;14.68;5.60;;;;;;;10.56;64.91;102567.94;5057180;28;20041;-86
2023/05/30 06:06:27;;;;;;;10.55;5.07;;;;;;;10.60;64.85;102569.28;5060223;28;20026;-86
2023/05/30 06:08:53;;;;;;;12.18;5.40;;;;;;;10.61;64.91;102568.28;5042405;28;20032;-86
2023/05/30 06:11:18;;;;;;;10.80;5.30;;;;;;;10.63;65.21;102566.28;5058549;28;20052;-87
2023/05/30 06:13:44;;;;;;;10.82;4.97;;;;;;;10.73;65.07;102564.38;5057970;28;20059;-84
2023/05/30 06:16:09;;;;;;;11.05;4.88;;;;;;;10.93;64.11;102566.91;5059721;28;20031;-86
2023/05/30 06:18:34;;;;;;;11.10;5.30;;;;;;;11.02;63.74;102563.25;5060165;28;20063;-85
2023/05/30 06:21:00;;;;;;;10.23;5.13;;;;;;;11.24;63.10;102558.34;5060989;28;20021;-86
2023/05/30 06:23:26;;;;;;;8.95;4.93;;;;;;;11.20;62.57;102556.94;5040703;28;20021;-86
2023/05/30 06:25:51;;;;;;;15.88;5.90;;;;;;;11.30;62.33;102552.28;5057935;28;20033;-85
2023/05/30 06:28:17;;;;;;;10.63;5.05;;;;;;;11.55;62.19;102555.13;5060034;28;20021;-85
2023/05/30 06:30:45;;;;;;;12.85;4.82;;;;;;;11.75;61.87;102561.09;5056912;28;20498;-85
2023/05/30 06:33:11;;;;;;;12.60;5.10;;;;;;;11.68;61.27;102544.72;5058574;28;20044;-86
2023/05/30 06:35:36;;;;;;;11.57;5.32;;;;;;;11.59;61.27;102556.50;5057071;28;20037;-86
2023/05/30 06:38:02;;;;;;;10.32;5.30;;;;;;;11.85;60.76;102566.38;5059835;28;20036;-86
2023/05/30 06:40:28;;;;;;;13.68;5.38;;;;;;;11.79;59.97;102562.47;5058905;28;20045;-85
2023/05/30 06:42:54;;;;;;;12.85;4.72;;;;;;;12.05;59.64;102568.81;5059447;28;20423;-85
2023/05/30 06:45:19;;;;;;;12.75;5.18;;;;;;;12.16;59.23;102573.94;5056673;28;20073;-86
2023/05/30 06:47:45;;;;;;;10.40;5.13;;;;;;;12.27;58.83;102576.31;5054605;28;20540;-86
2023/05/30 06:50:10;;;;;;;11.43;4.90;;;;;;;12.32;58.52;102577.69;5016681;28;1104848;-87
2023/05/30 06:52:36;;;;;;;11.63;4.43;;;;;;;12.19;58.60;102573.56;5056834;28;20035;-85
2023/05/30 06:55:01;;;;;;;9.85;5.25;;;;;;;12.30;58.22;102585.94;5055142;28;20076;-86
2023/05/30 06:57:27;;;;;;;15.90;4.85;;;;;;;12.32;58.26;102575.81;5056304;28;20021;-86
2023/05/30 06:59:52;;;;;;;11.80;4.80;;;;;;;12.50;58.08;102580.22;5039158;28;20025;-86
2023/05/30 07:02:18;;;;;;;13.85;5.03;;;;;;;12.62;57.70;102578.03;5056652;28;20044;-86
2023/05/30 07:04:43;;;;;;;10.82;4.75;;;;;;;12.69;57.29;102569.09;5038317;28;20057;-86
2023/05/30 07:07:09;;;;;;;11.93;4.45;;;;;;;12.92;56.70;102578.38;5058985;28;20029;-86
2023/05/30 07:09:35;;;;;;;12.60;4.53;;;;;;;13.09;56.30;102579.22;5039085;28;20472;-87
2023/05/30 07:12:00;;;;;;;10.48;4.60;;;;;;;13.22;55.46;102573.28;5023616;28;20031;-86
2023/05/30 07:14:26;;;;;;;10.25;4.78;;;;;;;13.08;55.82;102575.66;5037689;28;20028;-87
2023/05/30 07:16:51;;;;;;;10.52;5.18;;;;;;;13.33;55.54;102581.03;5055238;28;20055;-87
2023/05/30 07:19:17;;;;;;;13.82;4.68;;;;;;;13.61;54.84;102575.19;5055379;28;20025;-87
2023/05/30 07:21:42;;;;;;;12.75;4.78;;;;;;;13.93;53.93;102581.53;5055624;28;20025;-88
2023/05/30 07:24:09;;;;;;;8.23;4.43;;;;;;;14.07;53.21;102583.47;5055444;28;20393;-86
2023/05/30 07:26:34;;;;;;;11.15;4.53;;;;;;;14.10;53.36;102576.84;5055002;28;20036;-86
2023/05/30 07:29:00;;;;;;;9.10;4.60;;;;;;;13.87;53.66;102583.03;5053812;28;20021;-85
2023/05/30 07:31:25;;;;;;;9.35;4.10;;;;;;;13.94;53.71;102580.50;5054662;28;20037;-86
2023/05/30 07:33:51;;;;;;;14.00;5.05;;;;;;;14.17;53.62;102580.53;5054389;28;20055;-86
2023/05/30 07:36:16;;;;;;;11.70;4.43;;;;;;;14.56;52.51;102590.41;5056112;28;20027;-86
2023/05/30 07:38:41;;;;;;;10.82;4.88;;;;;;;14.34;52.41;102586.69;5037963;28;20036;-86
2023/05/30 07:41:07;;;;;;;10.15;5.03;;;;;;;14.49;52.31;102596.75;5058085;28;20025;-87
2023/05/30 07:43:32;;;;;;;8.48;4.55;;;;;;;14.83;51.22;102593.63;5055704;28;20017;-86
2023/05/30 07:45:58;;;;;;;10.90;4.50;;;;;;;15.22;50.20;102599.06;5055928;28;20090;-88
2023/05/30 07:48:23;;;;;;;14.00;4.55;;;;;;;15.65;49.34;102590.28;5054547;28;20090;-87
2023/05/30 07:50:49;;;;;;;10.95;4.70;;;;;;;16.51;47.31;102595.03;5056738;28;20095;-87
2023/05/30 07:53:14;;;;;;;12.70;4.40;;;;;;;18.49;43.55;102604.00;5057075;28;20101;-87
2023/05/30 07:55:42;;;;;;;11.25;4.32;;;;;;;19.47;41.18;102593.50;5056171;28;20025;-87
2023/05/30 07:58:07;;;;;;;7.47;4.00;;;;;;;20.79;37.95;102589.47;5057030;28;20028;-87
2023/05/30 08:00:33;;;;;;;7.55;3.78;;;;;;;22.21;35.22;102595.06;5055300;28;20091;-87
2023/05/30 08:02:58;;;;;;;7.35;4.05;;;;;;;23.00;34.02;102594.06;5054815;28;20578;-87
2023/05/30 08:05:24;;;;;;;9.20;3.83;;;;;;;22.55;33.99;102598.19;5054999;28;20032;-87
2023/05/30 08:07:49;;;;;;;8.35;4.40;;;;;;;20.87;36.00;102585.59;5054964;28;20033;-87
2023/05/30 08:10:15;;;;;;;7.25;4.03;;;;;;;20.06;37.72;102582.56;5055221;28;20043;-87
2023/05/30 08:12:40;;;;;;;8.88;4.18;;;;;;;20.10;37.90;102584.66;5055745;28;20025;-86
2023/05/30 08:15:07;;;;;;;10.65;4.10;;;;;;;19.36;39.10;102589.53;5055276;28;20106;-87
2023/05/30 08:17:33;;;;;;;7.13;4.32;;;;;;;19.30;38.52;102590.38;5051074;28;20556;-88
2023/05/30 08:19:58;;;;;;;8.93;4.05;;;;;;;19.25;38.93;102585.56;5055315;28;20017;-86
2023/05/30 08:22:23;;;;;;;11.55;4.63;;;;;;;19.17;39.51;102583.91;5055939;28;20031;-87
2023/05/30 08:24:50;;;;;;;12.65;4.78;;;;;;;19.10;39.38;102588.50;5054500;28;20024;-87
2023/05/30 08:27:16;;;;;;;10.10;5.00;;;;;;;18.72;40.69;102589.13;5056564;28;20057;-87
2023/05/30 08:29:42;;;;;;;11.32;4.55;;;;;;;19.28;39.88;102578.81;5057148;28;20100;-87
2023/05/30 08:32:07;;;;;;;12.40;4.82;;;;;;;20.32;37.81;102586.22;5056398;28;20044;-87
2023/05/30 08:34:32;;;;;;;9.27;4.30;;;;;;;22.16;35.04;102581.22;5059296;28;20041;-87
2023/05/30 08:36:58;;;;;;;8.18;3.90;;;;;;;22.86;33.23;102584.34;5061923;28;20029;-88
2023/05/30 08:39:23;;;;;;;11.93;4.35;;;;;;;22.85;32.75;102575.28;5063155;28;20063;-87
2023/05/30 08:41:49;;;;;;;14.48;4.45;;;;;;;23.52;32.27;102569.63;5069033;28;20076;-87
2023/05/30 08:44:14;;;;;;;9.93;3.92;;;;;;;24.47;30.66;102572.00;5070227;28;20492;-89
2023/05/30 08:46:42;;;;;;;10.90;3.92;;;;;;;24.31;30.28;102570.91;5065840;28;20090;-88
2023/05/30 08:49:09;;;;;;;11.18;4.13;;;;;;;24.75;30.02;102567.50;5065180;28;20642;-88
2023/05/30 08:51:36;;;;;;;10.15;4.53;;;;;;;24.42;29.98;102566.41;5038002;28;20048;-88
2023/05/30 08:54:02;;;;;;;10.10;4.05;;;;;;;24.05;30.97;102560.25;5039810;28;20041;-89
2023/05/30 08:56:31;;;;;;;8.15;3.83;;;;;;;24.53;30.63;102565.50;5039328;28;20026;-89
2023/05/30 08:58:57;;;;;;;9.20;3.83;;;;;;;25.48;29.35;102564.72;5040809;28;20033;-89
2023/05/30 09:01:22;;;;;;;7.38;3.80;;;;;;;25.64;28.45;102556.63;5021973;28;20032;-89
2023/05/30 09:03:47;;;;;;;11.00;3.78;;;;;;;25.45;29.17;102559.72;5038497;28;20417;-88
2023/05/30 09:06:13;;;;;;;10.13;3.90;;;;;;;25.16;30.29;102559.88;5041099;28;20044;-87
2023/05/30 09:08:41;;;;;;;8.43;3.45;;;;;;;25.13;30.04;102552.09;5039258;28;20127;-89
2023/05/30 09:11:06;;;;;;;9.40;4.03;;;;;;;24.92;29.94;102557.31;5040722;28;20064;-89
2023/05/30 09:13:34;;;;;;;13.05;4.18;;;;;;;24.80;30.55;102557.41;5044475;28;20097;-88
2023/05/30 09:16:01;;;;;;;7.85;4.03;;;;;;;25.62;29.06;102550.53;5044162;28;20025;-88
2023/05/30 09:18:31;;;;;;;9.88;4.07;;;;;;;25.82;29.19;102541.66;5041153;28;20033;-89
2023/05/30 09:20:57;;;;;;;11.48;4.00;;;;;;;26.52;27.66;102551.97;5040087;28;20029;-88
2023/05/30 09:23:23;;;;;;;9.85;3.80;;;;;;;26.33;27.95;102546.84;5038587;28;20075;-89
2023/05/30 09:25:49;;;;;;;7.97;4.28;;;;;;;25.99;28.27;102538.78;5039421;28;20056;-89
2023/05/30 09:28:15;;;;;;;8.77;4.28;;;;;;;25.53;29.37;102551.00;5040904;28;20057;-89
2023/05/30 09:30:54;;;;;;;9.55;4.07;;;;;;;25.16;29.71;102553.50;5038683;28;20039;-89
2023/05/30 09:33:20;;;;;;;15.35;4.07;;;;;;;25.33;29.21;102546.00;5029764;28;20030;-89
2023/05/30 09:35:47;;;;;;;10.32;4.05;;;;;;;25.95;28.48;102541.25;5020507;28;20159;-90
2023/05/30 09:38:15;;;;;;;13.57;4.07;;;;;;;26.11;28.08;102539.50;5031217;28;20022;-89
2023/05/30 09:40:41;;;;;;;10.25;4.07;;;;;;;25.79;28.53;102533.91;5040304;28;20029;-88
2023/05/30 09:43:06;;;;;;;9.32;3.97;;;;;;;26.04;28.63;102539.66;5023287;28;20484;-89
2023/05/30 09:45:31;;;;;;;9.02;4.20;;;;;;;25.92;28.07;102532.66;5040613;28;20025;-88
2023/05/30 09:47:57;;;;;;;6.90;3.97;;;;;;;26.29;27.60;102541.03;5039430;28;20507;-88
2023/05/30 09:50:23;;;;;;;6.88;3.65;;;;;;;26.66;26.95;102542.13;5044035;28;20053;-88
2023/05/30 09:52:51;;;;;;;8.32;3.70;;;;;;;27.07;26.46;102539.66;5060211;28;20024;-88
2023/05/30 09:55:18;;;;;;;7.90;3.95;;;;;;;27.35;26.67;102529.31;5059043;28;20017;-89
2023/05/30 09:57:48;;;;;;;8.70;4.20;;;;;;;27.78;26.52;102531.09;5042993;28;20032;-88
2023/05/30 10:00:15;;;;;;;6.47;3.63;;;;;;;28.34;26.06;102533.09;5059545;28;20025;-88
2023/05/30 10:02:52;;;;;;;6.97;4.18;;;;;;;26.60;27.26;102532.16;5059261;28;20036;-88
2023/05/30 10:05:21;;;;;;;11.35;4.38;;;;;;;26.23;28.11;102525.50;5043577;28;20090;-88
2023/05/30 10:07:48;;;;;;;8.80;4.30;;;;;;;26.95;27.02;102514.19;5059650;28;20107;-88
2023/05/30 10:10:14;;;;;;;10.00;4.20;;;;;;;26.26;28.30;102521.41;5058874;28;20055;-89
2023/05/30 10:12:41;;;;;;;9.52;4.40;;;;;;;26.53;27.63;102523.25;5043412;28;20017;-89
2023/05/30 10:15:07;;;;;;;8.82;4.05;;;;;;;26.88;27.33;102528.25;5025170;28;20020;-89
2023/05/30 10:17:35;;;;;;;7.85;3.95;;;;;;;27.66;26.26;102529.44;5058400;28;20100;-89
2023/05/30 10:20:02;;;;;;;8.88;4.30;;;;;;;28.21;25.11;102526.22;5044078;28;20041;-88
2023/05/30 10:22:35;;;;;;;8.77;4.35;;;;;;;27.46;26.12;102521.88;5041040;28;20541;-89
2023/05/30 10:25:02;;;;;;;7.38;3.92;;;;;;;27.03;26.71;102533.00;5040508;28;20020;-89
2023/05/30 10:27:31;;;;;;;7.00;3.97;;;;;;;27.52;26.68;102533.81;5025687;28;20029;-89
2023/05/30 10:30:11;;;;;;;12.05;4.22;;;;;;;28.55;24.64;102522.88;5025046;28;20021;-88
2023/05/30 10:32:38;;;;;;;7.10;3.70;;;;;;;28.41;25.45;102528.13;5058838;28;20322;-89
2023/05/30 10:35:33;;;;;;;8.40;3.80;;;;;;;28.68;25.59;102526.16;5060606;28;20021;-89
2023/05/30 10:37:59;;;;;;;6.53;3.87;;;;;;;29.03;23.57;102529.97;5056931;28;20036;-88
2023/05/30 10:40:32;;;;;;;7.95;4.07;;;;;;;28.59;24.37;102529.47;5041060;28;20049;-89
2023/05/30 10:43:13;;;;;;;9.93;3.88;;;;;;;28.25;24.92;102529.25;5060848;28;20036;-89
2023/05/30 10:46:15;;;;;;;7.35;3.92;;;;;;;27.93;25.64;102528.34;5062759;28;20055;-89
2023/05/30 10:48:44;;;;;;;9.80;4.20;;;;;;;28.63;25.02;102524.22;5061243;28;20037;-88
2023/05/30 10:51:10;;;;;;;9.77;4.32;;;;;;;28.24;24.86;102509.00;5053820;23;20061;-89
2023/05/30 10:53:43;;;;;;;6.90;3.63;;;;;;;28.55;25.17;102506.25;5038525;28;20022;-89
2023/05/30 10:56:40;;;;;;;10.57;4.00;;;;;;;28.54;25.36;102507.34;5041653;28;20033;-89
2023/05/30 10:59:33;;;;;;;8.75;4.68;;;;;;;28.56;25.07;102507.91;5041552;28;20489;-89
2023/05/30 11:02:02;;;;;;;6.40;3.72;;;;;;;29.03;25.31;102505.84;5023029;28;20044;-89
2023/05/30 11:04:42;;;;;;;5.78;4.18;;;;;;;28.41;24.90;102502.38;5042411;28;20496;-89
2023/05/30 11:07:09;;;;;;;8.23;3.80;;;;;;;27.81;26.32;102500.13;5023535;28;20021;-90
2023/05/30 11:09:35;;;;;;;5.95;3.50;;;;;;;28.06;26.15;102498.50;5038214;28;20036;-89
2023/05/30 11:12:01;;;;;;;8.25;3.80;;;;;;;28.77;25.26;102495.97;5007113;28;20029;-89
2023/05/30 11:14:28;;;;;;;7.63;3.50;;;;;;;27.56;26.94;102496.19;5040447;28;20048;-89
2023/05/30 11:17:02;;;;;;;8.15;3.97;;;;;;;27.53;26.84;102494.81;5050178;28;20482;-86
2023/05/30 11:19:58;;;;;;;6.63;4.00;;;;;;;28.53;25.30;102482.69;5042715;28;20508;-89
2023/05/30 11:22:23;;;;;;;;;;;;;;;28.70;25.29;102479.59;5023512;28;20037;-89
2023/05/30 11:25:19;;;;;;;7.57;3.80;;;;;;;27.36;26.79;102470.09;5039383;28;20001;-89
2023/05/30 11:28:03;;;;;;;6.85;3.65;;;;;;;27.51;26.51;102482.38;5039394;28;20082;-90
2023/05/30 11:30:29;;;;;;;8.60;4.07;;;;;;;27.12;26.86;102468.94;5039418;28;20044;-90
2023/05/30 11:32:56;;;;;;;9.00;3.95;;;;;;;27.08;27.25;102480.53;5039873;28;20032;-90
2023/05/30 11:35:22;;;;;;;7.25;3.70;;;;;;;27.77;26.48;102479.63;5031408;28;20473;-91
2023/05/30 11:37:47;;;;;;;8.10;3.67;;;;;;;27.74;26.97;102474.63;5001950;28;20038;-89